Time,TemperatureF,DewpointF,PressureIn,WindDirection,WindDirectionDegrees,WindSpeedMPH,WindSpeedGustMPH,Humidity,HourlyPrecipIn,Conditions,Clouds,dailyrainin,SoftwareType,DateUTC
2013-09-09 00:10:00,58.5,57.0,30.03,NNE,13,0.0,5.0,95,0.00,,,0.00,weatherlink.com 1.10,2013-09-09 04:10:00,
2013-09-09 00:25:00,58.4,57.0,30.03,North,10,0.0,4.0,94,0.00,,,0.00,weatherlink.com 1.10,2013-09-09 04:25:00,
2013-09-09 00:40:00,58.7,56.0,30.03,ENE,58,1.0,3.0,92,0.00,,,0.00,weatherlink.com 1.10,2013-09-09 04:40:00,
2013-09-09 00:55:00,59.7,57.0,30.04,NE,54,1.0,7.0,89,0.00,,,0.00,weatherlink.com 1.10,2013-09-09 04:55:00,
2013-09-09 01:10:00,60.4,56.0,30.03,NE,51,2.0,4.0,86,0.00,,,0.00,weatherlink.com 1.10,2013-09-09 05:10:00,
2013-09-09 01:25:00,60.5,56.0,30.03,NNE,15,2.0,3.0,84,0.00,,,0.00,weatherlink.com 1.10,2013-09-09 05:25:00,
2013-09-09 01:41:00,60.2,56.0,30.03,NNW,345,0.0,2.0,85,0.00,,,0.00,weatherlink.com 1.10,2013-09-09 05:41:00,
2013-09-09 01:56:00,60.1,56.0,30.04,ENE,59,1.0,5.0,85,0.00,,,0.00,weatherlink.com 1.10,2013-09-09 05:56:00,
2013-09-09 02:11:00,59.2,55.0,30.04,North,359,0.0,2.0,87,0.00,,,0.00,weatherlink.com 1.10,2013-09-09 06:11:00,
2013-09-09 02:26:00,58.6,55.0,30.04,ENE,75,0.0,4.0,88,0.00,,,0.00,weatherlink.com 1.10,2013-09-09 06:26:00,
2013-09-09 02:41:00,58.9,55.0,30.04,East,86,0.0,2.0,87,0.00,,,0.00,weatherlink.com 1.10,2013-09-09 06:41:00,
2013-09-09 02:56:00,60.0,55.0,30.04,ESE,112,0.0,3.0,83,0.00,,,0.00,weatherlink.com 1.10,2013-09-09 06:56:00,
2013-09-09 03:11:00,60.8,55.0,30.04,ENE,76,0.0,9.0,80,0.00,,,0.00,weatherlink.com 1.10,2013-09-09 07:11:00,
2013-09-09 03:26:00,59.3,55.0,30.04,ENE,72,0.0,3.0,84,0.00,,,0.00,weatherlink.com 1.10,2013-09-09 07:26:00,
2013-09-09 03:41:00,58.8,54.0,30.04,ENE,73,0.0,3.0,85,0.00,,,0.00,weatherlink.com 1.10,2013-09-09 07:41:00,
2013-09-09 03:56:00,59.5,54.0,30.04,North,4,8.0,8.0,83,0.00,,,0.00,weatherlink.com 1.10,2013-09-09 07:56:00,
2013-09-09 04:11:00,59.2,55.0,30.05,East,91,2.0,2.0,85,0.00,,,0.00,weatherlink.com 1.10,2013-09-09 08:11:00,
2013-09-09 04:26:00,59.5,55.0,30.05,NE,56,0.0,1.0,84,0.00,,,0.00,weatherlink.com 1.10,2013-09-09 08:26:00,
2013-09-09 04:41:00,59.0,55.0,30.06,NW,324,0.0,1.0,86,0.00,,,0.00,weatherlink.com 1.10,2013-09-09 08:41:00,
2013-09-09 04:56:00,58.0,55.0,30.06,NNE,29,0.0,4.0,88,0.00,,,0.00,weatherlink.com 1.10,2013-09-09 08:56:00,
2013-09-09 05:11:00,56.9,54.0,30.07,NNE,30,0.0,1.0,90,0.00,,,0.00,weatherlink.com 1.10,2013-09-09 09:11:00,
2013-09-09 05:26:00,57.4,54.0,30.07,NE,50,0.0,5.0,88,0.00,,,0.00,weatherlink.com 1.10,2013-09-09 09:26:00,
2013-09-09 05:41:00,56.9,54.0,30.07,South,172,0.0,2.0,89,0.00,,,0.00,weatherlink.com 1.10,2013-09-09 09:41:00,
2013-09-09 05:56:00,58.6,53.0,30.07,ESE,105,0.0,3.0,82,0.00,,,0.00,weatherlink.com 1.10,2013-09-09 09:56:00,
2013-09-09 06:11:00,57.1,54.0,30.07,WSW,247,0.0,1.0,88,0.00,,,0.00,weatherlink.com 1.10,2013-09-09 10:11:00,
2013-09-09 06:26:00,56.5,53.0,30.07,SW,226,1.0,1.0,88,0.00,,,0.00,weatherlink.com 1.10,2013-09-09 10:26:00,
2013-09-09 06:41:00,56.6,53.0,30.07,SSW,200,0.0,2.0,88,0.00,,,0.00,weatherlink.com 1.10,2013-09-09 10:41:00,
2013-09-09 06:56:00,56.2,53.0,30.08,NE,38,0.0,1.0,90,0.00,,,0.00,weatherlink.com 1.10,2013-09-09 10:56:00,
2013-09-09 07:11:00,56.1,53.0,30.08,NE,37,0.0,0.0,90,0.00,,,0.00,weatherlink.com 1.10,2013-09-09 11:11:00,
2013-09-09 07:26:00,55.8,53.0,30.09,West,262,0.0,1.0,91,0.00,,,0.00,weatherlink.com 1.10,2013-09-09 11:26:00,
2013-09-09 07:41:00,56.1,54.0,30.09,SE,124,0.0,1.0,91,0.00,,,0.00,weatherlink.com 1.10,2013-09-09 11:41:00,
2013-09-09 07:56:00,57.4,55.0,30.08,ESE,122,0.0,1.0,90,0.00,,,0.00,weatherlink.com 1.10,2013-09-09 11:56:00,
2013-09-09 08:11:00,58.5,55.0,30.09,ENE,61,0.0,2.0,87,0.00,,,0.00,weatherlink.com 1.10,2013-09-09 12:11:00,
2013-09-09 08:26:00,59.9,54.0,30.09,East,96,0.0,1.0,82,0.00,,,0.00,weatherlink.com 1.10,2013-09-09 12:26:00,
2013-09-09 08:41:00,60.8,55.0,30.10,ENE,58,0.0,1.0,80,0.00,,,0.00,weatherlink.com 1.10,2013-09-09 12:41:00,
2013-09-09 08:56:00,61.7,54.0,30.10,ESE,105,0.0,3.0,77,0.00,,,0.00,weatherlink.com 1.10,2013-09-09 12:56:00,
2013-09-09 09:11:00,63.2,53.0,30.10,ESE,105,0.0,1.0,70,0.00,,,0.00,weatherlink.com 1.10,2013-09-09 13:11:00,
2013-09-09 09:26:00,63.4,54.0,30.10,WSW,238,0.0,5.0,71,0.00,,,0.00,weatherlink.com 1.10,2013-09-09 13:26:00,
2013-09-09 09:41:00,64.8,54.0,30.10,ESE,114,1.0,4.0,67,0.00,,,0.00,weatherlink.com 1.10,2013-09-09 13:41:00,
2013-09-09 09:56:00,65.2,54.0,30.10,East,89,1.0,4.0,68,0.00,,,0.00,weatherlink.com 1.10,2013-09-09 13:56:00,
2013-09-09 10:11:00,67.0,55.0,30.10,West,262,3.0,4.0,66,0.00,,,0.00,weatherlink.com 1.10,2013-09-09 14:11:00,
2013-09-09 10:26:00,67.8,55.0,30.10,ESE,105,1.0,2.0,63,0.00,,,0.00,weatherlink.com 1.10,2013-09-09 14:26:00,
2013-09-09 10:41:00,68.8,57.0,30.09,West,263,0.0,2.0,66,0.00,,,0.00,weatherlink.com 1.10,2013-09-09 14:41:00,
2013-09-09 10:56:00,68.8,57.0,30.09,SE,141,0.0,4.0,67,0.00,,,0.00,weatherlink.com 1.10,2013-09-09 14:56:00,
2013-09-09 11:11:00,70.0,58.0,30.09,SE,125,1.0,2.0,66,0.00,,,0.00,weatherlink.com 1.10,2013-09-09 15:11:00,
2013-09-09 11:26:00,71.1,60.0,30.09,West,276,1.0,7.0,68,0.00,,,0.00,weatherlink.com 1.10,2013-09-09 15:26:00,
2013-09-09 11:41:00,72.7,60.0,30.09,SW,218,0.0,3.0,64,0.00,,,0.00,weatherlink.com 1.10,2013-09-09 15:41:00,
2013-09-09 11:56:00,72.6,60.0,30.09,West,277,1.0,7.0,64,0.00,,,0.00,weatherlink.com 1.10,2013-09-09 15:56:00,
2013-09-09 12:11:00,73.8,60.0,30.07,SE,125,2.0,8.0,63,0.00,,,0.00,weatherlink.com 1.10,2013-09-09 16:11:00,
2013-09-09 12:26:00,73.5,61.0,30.07,West,279,3.0,4.0,64,0.00,,,0.00,weatherlink.com 1.10,2013-09-09 16:26:00,
2013-09-09 12:41:00,73.8,62.0,30.07,ESE,117,0.0,6.0,67,0.00,,,0.00,weatherlink.com 1.10,2013-09-09 16:41:00,
2013-09-09 12:56:00,73.4,61.0,30.06,SSE,160,1.0,6.0,66,0.00,,,0.00,weatherlink.com 1.10,2013-09-09 16:56:00,
2013-09-09 13:11:00,73.9,62.0,30.06,East,89,1.0,4.0,66,0.00,,,0.00,weatherlink.com 1.10,2013-09-09 17:11:00,
2013-09-09 13:26:00,75.9,63.0,30.05,NNW,333,0.0,4.0,64,0.00,,,0.00,weatherlink.com 1.10,2013-09-09 17:26:00,
2013-09-09 13:41:00,75.5,63.0,30.05,East,87,1.0,4.0,66,0.00,,,0.00,weatherlink.com 1.10,2013-09-09 17:41:00,
2013-09-09 13:57:00,75.6,63.0,30.05,West,273,0.0,2.0,66,0.00,,,0.00,weatherlink.com 1.10,2013-09-09 17:57:00,
2013-09-09 14:12:00,76.0,63.0,30.05,SE,124,0.0,3.0,64,0.00,,,0.00,weatherlink.com 1.10,2013-09-09 18:12:00,
2013-09-09 14:27:00,75.3,63.0,30.05,WSW,256,2.0,5.0,65,0.00,,,0.00,weatherlink.com 1.10,2013-09-09 18:27:00,
2013-09-09 14:42:00,76.2,63.0,30.05,SW,228,0.0,2.0,64,0.00,,,0.00,weatherlink.com 1.10,2013-09-09 18:42:00,
2013-09-09 14:57:00,75.3,64.0,30.05,SSW,202,0.0,3.0,67,0.00,,,0.00,weatherlink.com 1.10,2013-09-09 18:57:00,
2013-09-09 15:12:00,75.3,64.0,30.04,NNE,18,1.0,1.0,67,0.00,,,0.00,weatherlink.com 1.10,2013-09-09 19:12:00,
2013-09-09 15:27:00,74.8,64.0,30.03,ENE,65,0.0,2.0,68,0.00,,,0.00,weatherlink.com 1.10,2013-09-09 19:27:00,
2013-09-09 15:42:00,74.4,63.0,30.03,SW,224,1.0,3.0,68,0.00,,,0.00,weatherlink.com 1.10,2013-09-09 19:42:00,
2013-09-09 15:57:00,74.2,63.0,30.03,East,95,2.0,4.0,68,0.00,,,0.00,weatherlink.com 1.10,2013-09-09 19:57:00,
2013-09-09 16:12:00,74.0,63.0,30.02,NE,51,0.0,4.0,69,0.00,,,0.00,weatherlink.com 1.10,2013-09-09 20:12:00,
2013-09-09 16:27:00,73.4,63.0,30.02,WSW,239,3.0,5.0,69,0.00,,,0.00,weatherlink.com 1.10,2013-09-09 20:27:00,
2013-09-09 16:42:00,72.8,63.0,30.02,SE,127,0.0,1.0,72,0.00,,,0.00,weatherlink.com 1.10,2013-09-09 20:42:00,
2013-09-09 16:57:00,71.7,64.0,30.02,SE,127,0.0,1.0,77,0.00,,,0.00,weatherlink.com 1.10,2013-09-09 20:57:00,
2013-09-09 17:12:00,70.8,64.0,30.01,ESE,112,0.0,2.0,78,0.00,,,0.00,weatherlink.com 1.10,2013-09-09 21:12:00,
2013-09-09 17:27:00,70.5,65.0,30.01,ESE,108,0.0,1.0,82,0.00,,,0.00,weatherlink.com 1.10,2013-09-09 21:27:00,
2013-09-09 17:42:00,69.2,64.0,30.01,ESE,108,0.0,1.0,84,0.00,,,0.00,weatherlink.com 1.10,2013-09-09 21:42:00,
2013-09-09 17:57:00,69.1,65.0,30.01,North,7,0.0,2.0,86,0.00,,,0.00,weatherlink.com 1.10,2013-09-09 21:57:00,
2013-09-09 18:12:00,69.1,65.0,30.01,North,358,0.0,3.0,86,0.00,,,0.00,weatherlink.com 1.10,2013-09-09 22:12:00,
2013-09-09 18:27:00,68.9,65.0,30.01,North,356,0.0,2.0,86,0.00,,,0.00,weatherlink.com 1.10,2013-09-09 22:27:00,
2013-09-09 18:42:00,69.0,64.0,30.01,NE,37,0.0,2.0,85,0.00,,,0.00,weatherlink.com 1.10,2013-09-09 22:42:00,
2013-09-09 18:57:00,69.5,65.0,30.02,NNE,24,0.0,3.0,84,0.00,,,0.00,weatherlink.com 1.10,2013-09-09 22:57:00,
2013-09-09 19:12:00,69.2,65.0,30.02,NE,51,0.0,1.0,85,0.00,,,0.00,weatherlink.com 1.10,2013-09-09 23:12:00,
2013-09-09 19:27:00,68.5,65.0,30.02,NE,51,0.0,1.0,87,0.00,,,0.00,weatherlink.com 1.10,2013-09-09 23:27:00,
2013-09-09 19:42:00,67.8,65.0,30.03,East,94,0.0,1.0,89,0.00,,,0.00,weatherlink.com 1.10,2013-09-09 23:42:00,
2013-09-09 19:57:00,68.0,64.0,30.03,ESE,110,0.0,2.0,87,0.00,,,0.00,weatherlink.com 1.10,2013-09-09 23:57:00,
2013-09-09 20:12:00,67.4,64.0,30.04,ESE,110,0.0,1.0,88,0.00,,,0.00,weatherlink.com 1.10,2013-09-10 00:12:00,
2013-09-09 20:27:00,67.2,64.0,30.05,ESE,110,0.0,1.0,89,0.00,,,0.00,weatherlink.com 1.10,2013-09-10 00:27:00,
2013-09-09 20:42:00,66.9,64.0,30.04,ESE,110,0.0,1.0,89,0.00,,,0.00,weatherlink.com 1.10,2013-09-10 00:42:00,
2013-09-09 20:57:00,66.9,64.0,30.04,ESE,110,0.0,1.0,91,0.00,,,0.00,weatherlink.com 1.10,2013-09-10 00:57:00,
2013-09-09 21:12:00,66.6,64.0,30.04,ESE,110,0.0,1.0,92,0.00,,,0.00,weatherlink.com 1.10,2013-09-10 01:12:00,
2013-09-09 21:27:00,66.4,64.0,30.04,ESE,110,0.0,1.0,93,0.00,,,0.00,weatherlink.com 1.10,2013-09-10 01:27:00,
2013-09-09 21:42:00,66.3,64.0,30.04,ESE,107,0.0,1.0,93,0.00,,,0.00,weatherlink.com 1.10,2013-09-10 01:42:00,
2013-09-09 21:57:00,66.2,64.0,30.04,ESE,107,0.0,1.0,93,0.00,,,0.00,weatherlink.com 1.10,2013-09-10 01:57:00,
2013-09-09 22:12:00,66.0,64.0,30.04,ESE,107,0.0,0.0,94,0.00,,,0.00,weatherlink.com 1.10,2013-09-10 02:12:00,
2013-09-09 22:27:00,65.9,64.0,30.04,ESE,107,0.0,0.0,94,0.00,,,0.00,weatherlink.com 1.10,2013-09-10 02:27:00,
2013-09-09 22:42:00,65.6,64.0,30.04,ESE,107,0.0,0.0,94,0.00,,,0.00,weatherlink.com 1.10,2013-09-10 02:42:00,
2013-09-09 22:57:00,65.5,64.0,30.04,ESE,107,0.0,0.0,95,0.00,,,0.00,weatherlink.com 1.10,2013-09-10 02:57:00,
2013-09-09 23:12:00,65.2,64.0,30.04,ESE,107,0.0,0.0,95,0.00,,,0.00,weatherlink.com 1.10,2013-09-10 03:12:00,
2013-09-09 23:27:00,64.9,64.0,30.04,ESE,107,0.0,0.0,96,0.00,,,0.00,weatherlink.com 1.10,2013-09-10 03:27:00,
2013-09-09 23:42:00,64.9,64.0,30.04,East,79,0.0,1.0,96,0.00,,,0.00,weatherlink.com 1.10,2013-09-10 03:42:00,
2013-09-09 23:58:00,64.4,63.0,30.05,East,79,0.0,0.0,96,0.00,,,0.00,weatherlink.com 1.10,2013-09-10 03:58:00,